Time;durP1;ratioP1;P1;durP2;ratioP2;P2;SDS_P1;SDS_P2;PMS_P1;PMS_P2;Temp;Humidity;BMP_temperature;BMP_pressure;BME280_temperature;BME280_humidity;BME280_pressure;Samples;Min_cycle;Max_cycle;Signal;HPM_P1;HPM_P2
2023/10/09 00:15:42;;;;;;;0.82;0.80;;;;;;;23.15;33.15;100643.91;21167989;28;20446;-71
2023/10/09 00:26:07;;;;;;;2.47;0.90;;;;;;;23.03;34.04;100632.34;21156992;28;20067;-66
2023/10/09 00:36:09;;;;;;;1.20;1.00;;;;;;;23.09;33.58;100659.03;21142769;28;20101;-65
2023/10/09 01:06:33;;;;;;;4.43;1.25;;;;;;;23.02;33.98;100689.31;21154541;28;20028;-67
2023/10/09 01:16:34;;;;;;;1.40;1.23;;;;;;;22.97;32.24;100683.78;21161333;28;20043;-69
2023/10/09 01:26:49;;;;;;;2.33;0.98;;;;;;;22.96;32.68;100690.53;21157524;28;20070;-70
2023/10/09 01:36:55;;;;;;;2.97;1.15;;;;;;;23.03;34.06;100696.53;21136875;28;20093;-70
2023/10/09 01:46:58;;;;;;;2.05;0.90;;;;;;;23.08;35.06;100707.63;21137265;28;20040;-66
2023/10/09 01:57:09;;;;;;;1.75;1.20;;;;;;;23.09;33.01;100714.84;21160850;28;20490;-69
2023/10/09 02:07:12;;;;;;;1.88;1.00;;;;;;;23.11;34.96;100712.63;21139502;28;20097;-68
2023/10/09 02:17:28;;;;;;;1.52;1.10;;;;;;;23.15;35.00;100710.88;21153632;28;20399;-67
2023/10/09 02:27:47;;;;;;;1.88;1.42;;;;;;;23.14;33.88;100714.81;21155298;28;20051;-68
2023/10/09 02:37:48;;;;;;;2.15;1.40;;;;;;;23.12;33.51;100730.19;21152855;28;20486;-67
2023/10/09 02:47:51;;;;;;;1.55;1.10;;;;;;;23.12;34.29;100728.22;21157885;28;20772;-67
2023/10/09 02:58:20;;;;;;;1.92;0.85;;;;;;;23.03;33.60;100721.66;21171343;27;20192;-66
2023/10/09 03:08:19;;;;;;;1.45;1.00;;;;;;;23.09;35.38;100720.44;21132840;28;20031;-65
2023/10/09 03:18:20;;;;;;;2.90;1.13;;;;;;;23.11;36.16;100714.56;21115473;28;20040;-66
2023/10/09 03:28:22;;;;;;;1.40;1.02;;;;;;;23.19;36.44;100739.84;21139001;28;20109;-65
2023/10/09 03:38:23;;;;;;;1.30;0.90;;;;;;;23.22;36.47;100733.66;21115181;28;20046;-66
2023/10/09 03:48:32;;;;;;;4.97;1.30;;;;;;;23.25;37.75;100733.06;21157823;28;20120;-63
2023/10/09 03:58:34;;;;;;;6.22;1.67;;;;;;;23.30;37.72;100734.94;21167320;28;20097;-65
2023/10/09 04:08:39;;;;;;;5.05;1.38;;;;;;;23.41;38.04;100735.59;21100883;28;20061;-66
2023/10/09 04:18:45;;;;;;;14.88;1.40;;;;;;;23.43;38.43;100730.56;21165949;27;20027;-66
2023/10/09 04:28:52;;;;;;;2.70;1.20;;;;;;;23.40;38.77;100729.19;21164912;28;20052;-65
2023/10/09 04:49:17;;;;;;;1.75;1.20;;;;;;;23.57;39.00;100748.22;21164784;28;20040;-64
2023/10/09 04:59:19;;;;;;;3.58;1.08;;;;;;;23.46;39.24;100721.56;21163696;27;20035;-64
2023/10/09 05:09:21;;;;;;;3.50;1.15;;;;;;;23.66;39.78;100738.03;21162891;28;20048;-65
2023/10/09 05:19:41;;;;;;;1.23;1.02;;;;;;;23.63;39.81;100738.59;21162373;28;20047;-64
2023/10/09 05:29:59;;;;;;;3.92;1.23;;;;;;;23.71;39.76;100746.34;21130297;28;20047;-64
2023/10/09 06:10:40;;;;;;;1.38;0.98;;;;;;;23.81;40.52;100767.69;21146103;28;20039;-63
2023/10/09 06:31:28;;;;;;;0.80;0.70;;;;;;;23.89;40.84;100763.38;21149833;28;20109;-65
2023/10/09 06:41:45;;;;;;;1.10;1.00;;;;;;;23.90;41.13;100765.84;21170796;28;20036;-65
2023/10/09 06:51:47;;;;;;;2.40;0.98;;;;;;;23.92;41.10;100773.94;21167085;28;20452;-64
2023/10/09 07:02:45;;;;;;;1.52;0.80;;;;;;;23.93;41.42;100770.00;21161866;27;20044;-65
2023/10/09 07:12:20;;;;;;;1.10;1.00;;;;;;;23.93;41.63;100762.47;21150657;28;20386;-65
2023/10/09 07:32:23;;;;;;;1.80;0.73;;;;;;;23.94;41.79;100755.72;21166937;27;20036;-65
2023/10/09 07:52:44;;;;;;;1.05;0.82;;;;;;;24.02;41.88;100757.00;21163531;28;20395;-66
2023/10/09 08:02:47;;;;;;;1.00;0.70;;;;;;;24.02;42.37;100769.00;21165157;28;20563;-64
2023/10/09 08:23:04;;;;;;;0.80;0.50;;;;;;;24.04;42.44;100772.31;21165801;28;20057;-65
2023/10/09 08:33:40;;;;;;;0.98;0.70;;;;;;;24.05;42.49;100775.94;21164363;28;20047;-65
2023/10/09 08:43:37;;;;;;;0.98;0.88;;;;;;;24.07;42.44;100782.06;21147876;28;20487;-63
2023/10/09 08:53:42;;;;;;;1.20;0.70;;;;;;;24.06;42.51;100786.00;21145688;28;20479;-64
2023/10/09 09:03:44;;;;;;;0.98;0.70;;;;;;;24.07;42.52;100793.25;21162243;28;20052;-64
2023/10/09 09:13:49;;;;;;;0.80;0.70;;;;;;;24.05;42.94;100792.72;21161713;28;20024;-64
2023/10/09 09:24:03;;;;;;;1.10;0.60;;;;;;;24.05;42.94;100809.47;21161228;28;20040;-65
2023/10/09 09:34:17;;;;;;;1.05;0.70;;;;;;;24.07;42.89;100810.03;21160606;28;20039;-65
2023/10/09 09:44:18;;;;;;;1.98;0.77;;;;;;;24.06;43.25;100809.19;21160179;28;20479;-64
2023/10/09 09:54:22;;;;;;;0.63;0.60;;;;;;;24.07;43.44;100816.44;21156198;28;20073;-63
2023/10/09 10:04:30;;;;;;;0.63;0.63;;;;;;;24.06;43.47;100820.38;21147580;28;20391;-64
2023/10/09 10:14:52;;;;;;;1.73;0.77;;;;;;;24.01;43.77;100826.06;21158276;28;20032;-65
2023/10/09 10:24:54;;;;;;;0.77;0.60;;;;;;;24.08;43.71;100823.69;21157479;28;20414;-64
2023/10/09 10:34:55;;;;;;;0.90;0.77;;;;;;;24.05;44.13;100829.91;21157643;28;20028;-64
2023/10/09 10:44:57;;;;;;;0.88;0.75;;;;;;;24.02;43.88;100830.50;21155964;28;20433;-64
2023/10/09 11:05:39;;;;;;;1.23;0.80;;;;;;;24.02;44.35;100824.91;21146939;28;20093;-65
2023/10/09 11:15:55;;;;;;;1.50;0.80;;;;;;;24.07;44.47;100846.34;21135244;28;20040;-64
2023/10/09 11:26:21;;;;;;;1.05;0.70;;;;;;;24.09;44.45;100852.47;21107438;28;20048;-64
2023/10/09 11:36:31;;;;;;;2.92;0.93;;;;;;;24.11;44.26;100854.97;21134717;28;20041;-63
2023/10/09 11:46:48;;;;;;;1.40;0.90;;;;;;;24.09;44.23;100858.88;21140172;28;20406;-63
2023/10/09 11:56:49;;;;;;;2.92;0.82;;;;;;;24.00;44.18;100855.13;21152751;28;20040;-63
2023/10/09 12:07:06;;;;;;;2.63;0.57;;;;;;;24.01;44.57;100872.75;21143630;28;20394;-63
2023/10/09 12:17:08;;;;;;;2.45;0.77;;;;;;;24.08;44.41;100906.72;21138190;28;20047;-62
2023/10/09 12:27:11;;;;;;;1.95;0.95;;;;;;;24.06;44.06;100897.81;21136428;28;20559;-74
2023/10/09 12:37:12;;;;;;;1.85;0.65;;;;;;;24.05;43.93;100901.72;21167692;28;20040;-73
2023/10/09 12:47:13;;;;;;;1.35;0.90;;;;;;;24.01;43.83;100906.28;21179544;28;20058;-74
2023/10/09 12:57:18;;;;;;;2.15;1.00;;;;;;;24.03;43.82;100901.22;21186950;28;20066;-75
2023/10/09 13:07:21;;;;;;;1.10;0.80;;;;;;;24.04;43.31;100916.84;21170001;28;20094;-75
2023/10/09 13:17:27;;;;;;;1.70;0.80;;;;;;;24.04;43.85;100908.44;21165531;28;20047;-74
2023/10/09 13:27:34;;;;;;;1.48;0.90;;;;;;;23.99;43.37;100903.78;21163805;28;20032;-74
2023/10/09 13:37:37;;;;;;;1.67;0.70;;;;;;;24.03;43.13;100916.00;21162028;28;20035;-71
2023/10/09 13:47:38;;;;;;;0.95;0.77;;;;;;;24.00;43.51;100921.38;21162186;28;20056;-74
2023/10/09 13:57:43;;;;;;;1.13;0.82;;;;;;;24.01;43.61;100925.84;21161537;28;20070;-74
2023/10/09 14:07:44;;;;;;;1.25;0.80;;;;;;;23.99;43.16;100936.47;21159240;28;20105;-74
2023/10/09 14:17:55;;;;;;;1.10;0.90;;;;;;;23.99;43.22;100934.53;21160945;28;20036;-74
2023/10/09 14:27:57;;;;;;;1.20;0.80;;;;;;;23.99;42.78;100914.94;21161006;28;20440;-74
2023/10/09 14:38:02;;;;;;;7.88;1.10;;;;;;;24.00;42.75;100915.78;21151582;28;20027;-74
2023/10/09 14:48:03;;;;;;;3.55;0.95;;;;;;;23.98;41.89;100906.88;21124608;28;20036;-65
2023/10/09 14:58:05;;;;;;;10.60;1.60;;;;;;;23.99;42.26;100906.56;21134108;28;20043;-65
2023/10/09 15:08:10;;;;;;;4.18;1.20;;;;;;;24.04;42.57;100908.44;21114712;28;20460;-66
2023/10/09 15:18:12;;;;;;;3.90;1.33;;;;;;;24.01;42.87;100889.50;21138780;28;20089;-66
2023/10/09 15:28:15;;;;;;;3.65;1.40;;;;;;;24.18;43.01;100903.75;21142819;28;20482;-65
2023/10/09 15:38:16;;;;;;;3.30;1.35;;;;;;;24.22;43.26;100890.81;21165616;28;20036;-64
2023/10/09 15:48:21;;;;;;;3.20;1.10;;;;;;;24.32;43.66;100885.06;21166428;28;20071;-65
2023/10/09 15:58:23;;;;;;;7.45;1.40;;;;;;;24.40;43.33;100880.78;21159430;28;20105;-66
2023/10/09 16:08:26;;;;;;;3.08;1.08;;;;;;;24.47;43.12;100866.41;21150015;28;20096;-65
2023/10/09 16:18:28;;;;;;;7.18;1.40;;;;;;;24.48;43.14;100860.50;21154910;28;20035;-67
2023/10/09 16:28:29;;;;;;;6.32;1.40;;;;;;;24.58;43.44;100853.88;21149205;28;20043;-69
2023/10/09 16:38:31;;;;;;;8.85;2.15;;;;;;;24.65;43.30;100831.94;21147596;28;20043;-67
2023/10/09 16:48:32;;;;;;;6.82;2.40;;;;;;;24.67;43.32;100815.66;21150785;28;20043;-68
2023/10/09 16:58:33;;;;;;;8.65;2.95;;;;;;;24.73;43.68;100800.41;21155820;27;20043;-68
2023/10/09 17:08:45;;;;;;;10.68;2.97;;;;;;;24.77;43.42;100800.63;21156713;28;20064;-68
2023/10/09 17:18:47;;;;;;;20.45;4.13;;;;;;;24.83;43.66;100777.84;21151614;28;20109;-69
2023/10/09 17:28:52;;;;;;;10.65;3.40;;;;;;;24.85;43.65;100777.53;21160741;28;20031;-67
2023/10/09 17:38:54;;;;;;;11.57;3.47;;;;;;;24.88;43.54;100768.53;21158227;28;20043;-64
2023/10/09 17:48:59;;;;;;;9.80;4.18;;;;;;;24.89;43.17;100752.56;21134066;28;20073;-65
2023/10/09 17:59:03;;;;;;;12.68;3.03;;;;;;;24.90;43.15;100743.84;21145257;28;20031;-66
2023/10/09 18:09:15;;;;;;;10.40;3.53;;;;;;;24.91;42.99;100736.25;21154327;28;20051;-65
2023/10/09 18:19:16;;;;;;;8.35;3.70;;;;;;;24.90;43.23;100729.84;21157933;28;20121;-65
2023/10/09 18:29:17;;;;;;;18.55;4.38;;;;;;;24.97;43.17;100721.00;21135042;28;20386;-69
2023/10/09 18:39:22;;;;;;;9.50;3.33;;;;;;;24.98;43.47;100701.13;21172273;28;20069;-68
2023/10/09 18:49:24;;;;;;;18.50;3.67;;;;;;;25.05;43.22;100723.06;21156697;28;20483;-64
2023/10/09 18:59:29;;;;;;;11.10;3.30;;;;;;;25.07;43.28;100720.78;21151477;28;20093;-64
2023/10/09 19:09:31;;;;;;;8.23;3.30;;;;;;;25.09;42.95;100712.94;21134344;28;20066;-64
2023/10/09 19:19:35;;;;;;;4.60;2.67;;;;;;;25.09;42.97;100698.94;21140405;28;20379;-63
2023/10/09 19:29:36;;;;;;;5.97;2.70;;;;;;;25.05;43.09;100684.69;21142861;27;20077;-64
2023/10/09 19:39:40;;;;;;;8.35;2.65;;;;;;;25.09;43.00;100687.72;21168909;28;20406;-64
2023/10/09 19:49:41;;;;;;;9.75;3.22;;;;;;;25.10;43.02;100686.56;21168532;28;20055;-64
2023/10/09 19:59:43;;;;;;;11.25;3.03;;;;;;;25.10;42.74;100680.97;21135801;28;20040;-65
2023/10/09 20:09:50;;;;;;;5.53;3.03;;;;;;;25.00;42.82;100664.41;21123249;28;20035;-65
2023/10/09 20:19:53;;;;;;;;;;;;;;;25.11;42.24;100671.47;21167463;28;20038;-64
2023/10/09 20:29:54;;;;;;;7.72;3.28;;;;;;;25.15;42.29;100671.63;21166593;28;19968;-64
2023/10/09 20:39:58;;;;;;;10.02;3.38;;;;;;;25.07;42.57;100667.59;21164861;28;20039;-64
2023/10/09 20:49:59;;;;;;;6.57;2.65;;;;;;;25.09;42.47;100662.53;21163006;28;20036;-66
2023/10/09 21:00:03;;;;;;;6.40;2.78;;;;;;;25.07;42.64;100662.00;21113377;28;20043;-64
2023/10/09 21:10:05;;;;;;;4.75;2.20;;;;;;;25.07;43.01;100676.00;21144376;28;20455;-64
2023/10/09 21:20:17;;;;;;;18.52;3.53;;;;;;;25.05;43.36;100661.47;21154736;28;20042;-69
2023/10/09 21:30:19;;;;;;;6.15;2.70;;;;;;;25.06;43.88;100671.53;21158390;27;20047;-70
2023/10/09 21:40:28;;;;;;;7.28;2.08;;;;;;;25.06;43.96;100691.97;21162036;28;20028;-71
2023/10/09 21:50:30;;;;;;;8.40;2.30;;;;;;;25.06;43.85;100730.31;21128087;28;20078;-68
2023/10/09 22:00:32;;;;;;;6.55;2.28;;;;;;;25.04;44.15;100741.84;21145499;28;20163;-68
2023/10/09 22:10:33;;;;;;;6.03;2.75;;;;;;;24.89;44.17;100730.16;21125037;28;20032;-65
2023/10/09 22:20:35;;;;;;;3.20;2.00;;;;;;;24.97;43.94;100760.19;21138786;28;20555;-67
2023/10/09 22:30:43;;;;;;;6.85;2.05;;;;;;;25.01;43.89;100775.22;21122649;28;20052;-67
2023/10/09 22:40:48;;;;;;;7.18;2.10;;;;;;;24.92;44.13;100786.31;21151341;28;20043;-66
2023/10/09 22:50:58;;;;;;;4.30;1.75;;;;;;;24.91;44.33;100779.06;21158975;28;20040;-67
2023/10/09 23:00:59;;;;;;;5.28;2.15;;;;;;;24.98;44.07;100806.66;21153290;28;20080;-66
2023/10/09 23:11:12;;;;;;;22.80;2.55;;;;;;;24.97;44.50;100796.59;21120891;28;20055;-66
2023/10/09 23:21:19;;;;;;;4.28;1.92;;;;;;;24.96;44.75;100804.16;21106979;28;20081;-66
2023/10/09 23:31:35;;;;;;;5.40;2.20;;;;;;;24.94;44.52;100822.41;21162455;28;20108;-67
2023/10/09 23:41:38;;;;;;;5.70;2.17;;;;;;;24.93;44.39;100827.19;21142941;28;20054;-67
2023/10/09 23:51:39;;;;;;;27.25;19.23;;;;;;;24.93;44.79;100838.38;21111203;28;20024;-66
